Time;durP1;ratioP1;P1;durP2;ratioP2;P2;SDS_P1;SDS_P2;PMS_P1;PMS_P2;Temp;Humidity;BMP_temperature;BMP_pressure;BME280_temperature;BME280_humidity;BME280_pressure;Samples;Min_cycle;Max_cycle;Signal;HPM_P1;HPM_P2
2023/08/25 00:00:09;;;;;;;8.73;6.10;;;28.20;37.90;;;;;;5133292;27;20432;-53
2023/08/25 00:02:36;;;;;;;7.43;6.10;;;28.30;37.80;;;;;;5133235;27;20210;-51
2023/08/25 00:05:03;;;;;;;7.30;5.63;;;28.30;37.50;;;;;;5132953;27;20419;-53
2023/08/25 00:07:29;;;;;;;10.13;6.10;;;28.30;37.10;;;;;;5132998;27;20707;-55
2023/08/25 00:09:55;;;;;;;6.33;5.80;;;28.30;37.30;;;;;;5133197;27;20413;-53
2023/08/25 00:12:22;;;;;;;7.70;6.87;;;28.40;37.40;;;;;;5133004;27;20807;-51
2023/08/25 00:14:48;;;;;;;10.30;6.30;;;28.40;36.80;;;;;;5132934;27;20449;-53
2023/08/25 00:17:14;;;;;;;5.87;5.20;;;28.40;36.50;;;;;;5133097;27;20809;-52
2023/08/25 00:19:40;;;;;;;5.90;5.30;;;28.40;36.80;;;;;;5133058;27;20454;-54
2023/08/25 00:22:06;;;;;;;6.83;6.10;;;28.40;36.70;;;;;;5132888;27;20529;-51
2023/08/25 00:24:34;;;;;;;7.77;5.77;;;28.40;36.90;;;;;;5132747;27;20401;-54
2023/08/25 00:27:00;;;;;;;9.23;6.20;;;28.40;36.50;;;;;;5132877;27;20315;-52
2023/08/25 00:29:26;;;;;;;5.63;5.13;;;28.40;36.70;;;;;;5132940;27;20941;-53
2023/08/25 00:31:52;;;;;;;6.90;5.60;;;28.30;36.90;;;;;;5132909;27;20460;-56
2023/08/25 00:34:17;;;;;;;8.07;5.70;;;28.40;37.30;;;;;;5132505;28;20167;-53
2023/08/25 00:36:43;;;;;;;6.77;5.13;;;28.40;37.00;;;;;;5132799;27;20282;-53
2023/08/25 00:39:10;;;;;;;7.93;5.83;;;28.50;36.80;;;;;;5132881;27;20916;-54
2023/08/25 00:41:36;;;;;;;10.30;6.70;;;28.40;37.30;;;;;;5132896;28;20181;-51
2023/08/25 00:44:02;;;;;;;9.63;6.13;;;28.50;37.20;;;;;;5133006;28;20405;-53
2023/08/25 00:46:29;;;;;;;5.70;5.20;;;28.40;36.80;;;;;;5132867;27;20535;-56
2023/08/25 00:48:55;;;;;;;5.80;5.30;;;28.40;37.00;;;;;;5133470;27;20425;-50
2023/08/25 00:51:21;;;;;;;6.70;6.03;;;28.40;37.00;;;;;;5137084;27;20499;-54
2023/08/25 00:53:48;;;;;;;7.00;5.83;;;28.40;36.90;;;;;;5136831;27;20443;-53
2023/08/25 00:56:14;;;;;;;6.03;5.53;;;28.50;37.00;;;;;;5136665;27;20467;-51
2023/08/25 00:58:40;;;;;;;5.77;5.27;;;28.50;36.90;;;;;;5137000;27;20487;-56
2023/08/25 01:01:06;;;;;;;7.40;6.70;;;28.50;36.80;;;;;;5136732;27;20403;-57
2023/08/25 01:03:33;;;;;;;10.10;6.27;;;28.40;36.80;;;;;;5136574;27;20404;-53
2023/08/25 01:05:59;;;;;;;9.50;6.10;;;28.40;36.80;;;;;;5136492;27;20480;-56
2023/08/25 01:08:24;;;;;;;10.20;6.60;;;28.30;37.40;;;;;;5136610;27;20493;-55
2023/08/25 01:11:15;;;;;;;7.10;6.40;;;28.30;37.20;;;;;;5136778;27;20178;-53
2023/08/25 01:14:08;;;;;;;7.67;6.67;;;28.30;37.00;;;;;;5136507;27;20243;-55
2023/08/25 01:16:37;;;;;;;7.07;6.30;;;28.30;37.00;;;;;;5136623;27;20821;-53
2023/08/25 01:19:26;;;;;;;7.73;6.93;;;28.30;37.30;;;;;;5136380;27;20460;-53
2023/08/25 01:21:58;;;;;;;9.70;6.17;;;28.20;37.30;;;;;;5136322;27;20499;-51
2023/08/25 01:24:29;;;;;;;6.10;5.27;;;28.30;37.30;;;;;;5136012;27;20902;-50
2023/08/25 01:26:55;;;;;;;7.13;6.47;;;28.20;37.30;;;;;;5136446;27;20456;-55
2023/08/25 01:29:21;;;;;;;8.20;6.17;;;28.20;37.90;;;;;;5136214;27;20413;-52
2023/08/25 01:31:47;;;;;;;8.17;7.03;;;28.20;37.80;;;;;;5136273;27;20416;-55
2023/08/25 01:34:15;;;;;;;6.73;6.13;;;28.10;37.60;;;;;;5135712;27;20762;-52
2023/08/25 01:36:59;;;;;;;6.53;5.67;;;28.10;37.40;;;;;;5135853;27;20564;-52
2023/08/25 01:39:28;;;;;;;11.93;6.40;;;28.10;37.70;;;;;;5135922;27;20774;-54
2023/08/25 01:42:00;;;;;;;7.50;6.17;;;28.10;37.60;;;;;;5135930;27;20886;-56
2023/08/25 01:44:28;;;;;;;16.93;7.00;;;28.00;38.00;;;;;;5136145;27;20445;-52
2023/08/25 01:47:00;;;;;;;10.23;6.77;;;28.00;38.00;;;;;;5136028;27;20559;-56
2023/08/25 01:49:28;;;;;;;6.53;5.30;;;28.00;37.80;;;;;;5135784;27;20402;-51
2023/08/25 01:51:55;;;;;;;6.67;6.17;;;28.10;37.70;;;;;;5135730;27;20907;-52
2023/08/25 01:54:21;;;;;;;6.37;5.03;;;28.00;37.60;;;;;;5135345;27;20405;-55
2023/08/25 01:56:46;;;;;;;9.80;6.73;;;28.10;37.70;;;;;;5135570;27;20416;-53
2023/08/25 01:59:12;;;;;;;8.50;5.60;;;28.10;37.50;;;;;;5135455;27;20255;-52
2023/08/25 02:01:38;;;;;;;8.53;7.37;;;28.10;37.50;;;;;;5135099;27;20558;-56
2023/08/25 02:04:05;;;;;;;6.40;5.80;;;28.10;37.30;;;;;;5135362;27;20445;-52
2023/08/25 02:06:32;;;;;;;8.60;6.60;;;28.10;37.70;;;;;;5135616;27;20202;-53
2023/08/25 02:08:58;;;;;;;7.37;6.03;;;28.10;38.30;;;;;;5135640;27;20488;-53
2023/08/25 02:11:24;;;;;;;7.40;6.60;;;28.00;38.50;;;;;;5135326;27;20487;-52
2023/08/25 02:13:49;;;;;;;6.20;5.60;;;28.00;37.80;;;;;;5135342;27;20400;-55
2023/08/25 02:16:15;;;;;;;6.70;5.43;;;28.00;37.50;;;;;;5134928;27;20747;-52
2023/08/25 02:18:41;;;;;;;7.80;4.90;;;28.00;37.10;;;;;;5135416;27;20171;-53
2023/08/25 02:21:06;;;;;;;7.33;5.27;;;28.00;36.90;;;;;;5135273;27;20161;-54
2023/08/25 02:23:32;;;;;;;6.60;4.93;;;28.00;37.10;;;;;;5135079;27;20232;-53
2023/08/25 02:25:58;;;;;;;5.60;4.73;;;28.00;36.30;;;;;;5135096;27;20199;-52
2023/08/25 02:28:24;;;;;;;5.60;5.07;;;28.00;36.80;;;;;;5135183;27;20254;-55
2023/08/25 02:30:49;;;;;;;5.83;5.13;;;28.10;36.40;;;;;;5135005;27;20199;-51
2023/08/25 02:33:15;;;;;;;6.27;4.93;;;28.20;36.50;;;;;;5135147;27;20205;-55
2023/08/25 02:35:42;;;;;;;10.60;5.07;;;28.30;36.50;;;;;;5134453;27;20690;-54
2023/08/25 02:38:11;;;;;;;7.60;4.80;;;28.30;36.70;;;;;;5134977;27;20171;-53
2023/08/25 02:40:40;;;;;;;6.30;4.50;;;28.40;36.50;;;;;;5134909;27;20483;-57
2023/08/25 02:43:07;;;;;;;6.17;4.57;;;28.40;36.30;;;;;;5134743;27;20407;-51
2023/08/25 02:45:36;;;;;;;5.27;4.67;;;28.40;36.60;;;;;;5134424;27;20905;-54
2023/08/25 02:48:02;;;;;;;6.87;4.40;;;28.50;36.50;;;;;;5134647;27;20400;-54
2023/08/25 02:50:28;;;;;;;5.30;4.80;;;28.50;36.20;;;;;;5134896;27;20408;-52
2023/08/25 02:52:56;;;;;;;5.03;4.47;;;28.50;36.30;;;;;;5134725;27;20498;-55
2023/08/25 02:55:22;;;;;;;9.10;4.87;;;28.50;36.30;;;;;;5134471;27;20444;-52
2023/08/25 02:57:49;;;;;;;7.07;5.20;;;28.60;36.50;;;;;;5134740;27;20490;-51
2023/08/25 03:00:20;;;;;;;8.53;5.30;;;28.60;36.40;;;;;;5134349;27;20443;-53
2023/08/25 03:02:46;;;;;;;7.47;5.00;;;28.60;36.60;;;;;;5134587;27;20393;-53
2023/08/25 03:05:11;;;;;;;5.87;4.87;;;28.60;36.70;;;;;;5134189;27;20825;-52
2023/08/25 03:07:37;;;;;;;6.37;5.00;;;28.60;36.80;;;;;;5134146;27;20235;-53
2023/08/25 03:10:03;;;;;;;6.87;4.90;;;28.60;36.80;;;;;;5134287;27;20220;-55
2023/08/25 03:12:29;;;;;;;6.53;5.07;;;28.60;37.00;;;;;;5133195;27;20170;-51
2023/08/25 03:14:55;;;;;;;4.90;4.20;;;28.60;37.00;;;;;;5133853;27;20444;-55
2023/08/25 03:17:22;;;;;;;9.73;5.40;;;28.50;37.20;;;;;;5134046;27;20204;-52
2023/08/25 03:19:48;;;;;;;7.03;4.80;;;28.60;37.50;;;;;;5134265;27;20401;-51
2023/08/25 03:22:14;;;;;;;9.00;5.40;;;28.50;37.50;;;;;;5134010;27;20428;-54
2023/08/25 03:24:39;;;;;;;7.00;5.00;;;28.40;37.60;;;;;;5133971;27;20440;-52
2023/08/25 03:27:05;;;;;;;8.50;5.33;;;28.40;37.80;;;;;;5133702;27;20431;-57
2023/08/25 03:29:34;;;;;;;9.10;4.87;;;28.40;38.00;;;;;;5133789;27;20254;-52
2023/08/25 03:32:00;;;;;;;15.13;5.00;;;28.40;37.80;;;;;;5133953;27;20619;-56
2023/08/25 03:34:26;;;;;;;5.17;4.67;;;28.40;38.20;;;;;;5133303;27;20507;-51
2023/08/25 03:36:52;;;;;;;6.47;5.20;;;28.40;38.40;;;;;;5133627;27;20202;-56
2023/08/25 03:39:18;;;;;;;5.37;4.47;;;28.40;38.60;;;;;;5133649;27;20778;-52
2023/08/25 03:41:45;;;;;;;6.67;5.00;;;28.30;38.50;;;;;;5133855;27;20197;-56
2023/08/25 03:44:10;;;;;;;7.80;5.90;;;28.30;38.80;;;;;;5133237;27;20404;-52
2023/08/25 03:46:36;;;;;;;7.40;4.67;;;28.20;38.70;;;;;;5133641;27;20528;-54
2023/08/25 03:49:02;;;;;;;6.00;5.10;;;28.20;39.00;;;;;;5133781;27;20182;-53
2023/08/25 03:51:28;;;;;;;7.03;4.67;;;28.20;39.20;;;;;;5133552;27;20239;-50
2023/08/25 03:53:54;;;;;;;4.67;4.27;;;28.20;39.20;;;;;;5133346;27;20159;-56
2023/08/25 03:56:20;;;;;;;6.40;4.60;;;28.20;39.10;;;;;;5133316;27;20458;-56
2023/08/25 03:58:46;;;;;;;9.60;5.00;;;28.10;39.20;;;;;;5133485;27;20175;-52
2023/08/25 04:01:12;;;;;;;10.27;5.50;;;28.10;39.50;;;;;;5133713;27;20753;-52
2023/08/25 04:03:37;;;;;;;9.17;5.47;;;28.10;39.60;;;;;;5133219;27;20173;-54
2023/08/25 04:06:03;;;;;;;7.93;5.10;;;28.10;40.00;;;;;;5133026;27;20186;-53
2023/08/25 04:08:29;;;;;;;7.30;4.93;;;28.00;40.10;;;;;;5133247;27;20167;-51
2023/08/25 04:10:54;;;;;;;7.13;5.80;;;28.00;40.10;;;;;;5133506;27;20194;-55
2023/08/25 04:13:20;;;;;;;5.73;5.23;;;28.00;40.20;;;;;;5133070;27;20171;-53
2023/08/25 04:15:57;;;;;;;5.10;4.60;;;28.00;40.60;;;;;;5132857;27;20247;-53
2023/08/25 04:18:24;;;;;;;8.17;5.20;;;27.90;40.10;;;;;;5133334;27;20166;-56
2023/08/25 04:20:50;;;;;;;5.70;5.20;;;27.90;40.40;;;;;;5133060;27;20404;-53
2023/08/25 04:23:16;;;;;;;7.53;5.60;;;27.90;40.40;;;;;;5132810;27;20389;-52
2023/08/25 04:25:42;;;;;;;5.63;5.10;;;27.80;40.40;;;;;;5132514;27;20430;-55
2023/08/25 04:28:08;;;;;;;6.33;5.30;;;27.80;40.90;;;;;;5133250;27;20218;-54
2023/08/25 04:30:34;;;;;;;7.47;5.23;;;27.80;41.10;;;;;;5133315;27;20174;-52
2023/08/25 04:33:00;;;;;;;7.00;5.47;;;27.80;41.50;;;;;;5133175;27;20213;-58
2023/08/25 04:35:25;;;;;;;5.30;4.80;;;27.80;41.50;;;;;;5132412;27;20485;-52
2023/08/25 04:37:51;;;;;;;6.07;4.90;;;27.70;41.70;;;;;;5132883;28;20198;-52
2023/08/25 04:40:21;;;;;;;6.13;5.00;;;27.70;41.80;;;;;;5133030;27;20171;-53
2023/08/25 04:42:46;;;;;;;6.67;6.07;;;27.70;42.40;;;;;;5132996;27;20177;-52
2023/08/25 04:45:13;;;;;;;6.83;5.40;;;27.60;43.30;;;;;;5132553;28;20757;-52
2023/08/25 04:47:39;;;;;;;7.03;6.27;;;27.60;42.60;;;;;;5132724;27;20472;-57
2023/08/25 04:50:07;;;;;;;9.07;5.60;;;27.60;42.80;;;;;;5132743;27;20396;-56
2023/08/25 04:52:34;;;;;;;8.93;5.77;;;27.60;43.00;;;;;;5133057;27;20404;-52
2023/08/25 04:55:03;;;;;;;7.40;5.90;;;27.50;43.40;;;;;;5132539;27;20459;-53
2023/08/25 04:57:28;;;;;;;8.40;6.90;;;27.50;43.40;;;;;;5132768;27;20420;-54
2023/08/25 04:59:54;;;;;;;5.87;5.27;;;27.50;43.40;;;;;;5132633;28;20449;-52
2023/08/25 05:02:20;;;;;;;11.47;6.53;;;27.50;43.90;;;;;;5132889;27;20249;-53
2023/08/25 05:04:47;;;;;;;6.43;5.63;;;27.50;43.90;;;;;;5132364;27;20952;-54
2023/08/25 05:07:12;;;;;;;8.40;6.43;;;27.50;44.10;;;;;;5132793;27;20425;-55
2023/08/25 05:09:38;;;;;;;6.33;5.27;;;27.50;43.40;;;;;;5132448;27;20441;-52
2023/08/25 05:12:04;;;;;;;10.00;5.30;;;27.50;42.60;;;;;;5132874;27;20163;-53
2023/08/25 05:14:30;;;;;;;5.90;4.97;;;27.60;41.80;;;;;;5132397;27;20254;-53
2023/08/25 05:16:56;;;;;;;7.47;6.20;;;27.60;41.40;;;;;;5132379;27;20511;-53
2023/08/25 05:19:22;;;;;;;13.50;5.10;;;27.60;41.30;;;;;;5132434;27;20171;-55
2023/08/25 05:21:48;;;;;;;10.60;5.97;;;27.60;40.80;;;;;;5132417;27;20523;-53
2023/08/25 05:24:25;;;;;;;7.63;5.53;;;27.70;40.70;;;;;;5132086;27;20242;-53
2023/08/25 05:26:52;;;;;;;6.23;5.63;;;27.80;40.60;;;;;;5132321;27;20282;-53
2023/08/25 05:29:18;;;;;;;6.03;5.43;;;27.80;40.50;;;;;;5132646;27;20411;-51
2023/08/25 05:31:44;;;;;;;10.30;5.13;;;27.90;40.80;;;;;;5132239;27;20412;-57
2023/08/25 05:34:10;;;;;;;8.90;4.73;;;28.00;41.10;;;;;;5131941;27;20404;-57
2023/08/25 05:36:35;;;;;;;6.07;4.70;;;28.10;40.70;;;;;;5135437;27;20210;-52
2023/08/25 05:39:01;;;;;;;6.10;4.63;;;28.10;41.00;;;;;;5135977;27;20167;-53
2023/08/25 05:41:27;;;;;;;10.17;4.70;;;28.20;40.60;;;;;;5136121;27;20167;-57
2023/08/25 05:43:54;;;;;;;4.80;4.40;;;28.30;40.80;;;;;;5135800;27;20905;-57
2023/08/25 05:46:19;;;;;;;6.60;4.87;;;28.40;40.20;;;;;;5135620;27;20424;-53
2023/08/25 05:48:45;;;;;;;6.33;4.67;;;28.40;40.50;;;;;;5136016;27;20409;-52
2023/08/25 05:51:11;;;;;;;7.23;4.40;;;28.50;40.10;;;;;;5134529;27;20175;-55
2023/08/25 05:53:37;;;;;;;8.07;4.63;;;28.60;39.50;;;;;;5136040;27;20171;-55
2023/08/25 05:56:02;;;;;;;5.10;4.20;;;28.60;39.50;;;;;;5135293;27;20756;-54
2023/08/25 05:58:28;;;;;;;8.13;4.40;;;28.70;40.00;;;;;;5135660;27;20156;-57
2023/08/25 06:00:54;;;;;;;6.73;5.10;;;28.80;39.60;;;;;;5135696;27;20163;-53
2023/08/25 06:03:20;;;;;;;7.87;5.00;;;28.80;39.00;;;;;;5135755;27;20174;-57
2023/08/25 06:05:46;;;;;;;8.07;3.60;;;28.90;38.80;;;;;;5135130;27;20428;-52
2023/08/25 06:08:13;;;;;;;5.33;4.00;;;28.90;39.10;;;;;;5135430;27;20194;-52
2023/08/25 06:10:39;;;;;;;5.10;3.87;;;29.00;39.30;;;;;;5135685;27;20400;-58
2023/08/25 06:13:04;;;;;;;4.50;4.10;;;29.10;39.40;;;;;;5135452;27;20404;-53
2023/08/25 06:15:30;;;;;;;5.27;3.80;;;29.10;39.70;;;;;;5135017;27;20676;-52
2023/08/25 06:17:56;;;;;;;7.37;4.07;;;29.20;39.80;;;;;;5135329;27;20497;-57
2023/08/25 06:20:22;;;;;;;8.27;5.03;;;29.20;39.00;;;;;;5133870;27;20163;-56
2023/08/25 06:22:47;;;;;;;7.90;4.10;;;29.30;39.20;;;;;;5135335;27;20166;-53
2023/08/25 06:25:13;;;;;;;4.83;3.90;;;29.30;39.70;;;;;;5135195;27;20178;-52
2023/08/25 06:27:39;;;;;;;5.03;4.07;;;29.30;40.50;;;;;;5135263;27;20197;-55
2023/08/25 06:30:05;;;;;;;6.70;3.80;;;29.40;39.90;;;;;;5135151;27;20714;-55
2023/08/25 06:32:31;;;;;;;6.47;3.83;;;29.40;39.60;;;;;;5134943;27;20626;-51
2023/08/25 06:34:57;;;;;;;12.70;4.13;;;29.40;39.60;;;;;;5134641;27;20551;-53
2023/08/25 06:37:24;;;;;;;6.10;4.00;;;29.50;39.60;;;;;;5134996;27;20535;-52
2023/08/25 06:39:50;;;;;;;4.63;4.23;;;29.50;39.70;;;;;;5134857;27;20826;-57
2023/08/25 06:42:16;;;;;;;7.27;4.90;;;29.60;39.90;;;;;;5134765;27;20536;-56
2023/08/25 06:44:42;;;;;;;5.77;4.90;;;29.60;39.70;;;;;;5134864;27;20257;-52
2023/08/25 06:47:08;;;;;;;5.03;4.10;;;29.60;39.90;;;;;;5134499;27;20450;-54
2023/08/25 06:49:34;;;;;;;6.40;4.80;;;29.60;39.50;;;;;;5134551;27;20245;-56
2023/08/25 06:51:59;;;;;;;7.80;4.00;;;29.70;39.80;;;;;;5134563;27;20170;-51
2023/08/25 06:54:26;;;;;;;5.50;4.27;;;29.80;39.80;;;;;;5134492;27;20174;-53
2023/08/25 06:56:52;;;;;;;7.70;4.50;;;29.80;39.60;;;;;;5134328;27;20606;-57
2023/08/25 06:59:18;;;;;;;9.83;4.77;;;29.80;39.90;;;;;;5134387;27;21000;-52
2023/08/25 07:01:44;;;;;;;6.00;4.67;;;29.90;39.90;;;;;;5134630;27;20436;-53
2023/08/25 07:04:10;;;;;;;5.23;4.00;;;30.00;40.30;;;;;;5134068;27;20202;-57
2023/08/25 07:06:37;;;;;;;4.97;3.80;;;30.00;40.30;;;;;;5134439;27;20425;-56
2023/08/25 07:09:06;;;;;;;5.50;4.20;;;30.10;40.20;;;;;;5134197;27;20497;-52
2023/08/25 07:11:32;;;;;;;4.90;3.60;;;30.20;39.80;;;;;;5134311;27;20429;-53
2023/08/25 07:13:58;;;;;;;7.30;3.80;;;30.20;39.80;;;;;;5134145;27;20920;-58
2023/08/25 07:16:25;;;;;;;4.40;4.00;;;30.20;39.90;;;;;;5133727;27;20456;-52
2023/08/25 07:18:51;;;;;;;5.43;4.20;;;30.30;39.70;;;;;;5134312;27;20400;-58
2023/08/25 07:21:16;;;;;;;4.57;4.17;;;30.30;39.60;;;;;;5134252;27;20423;-53
2023/08/25 07:23:42;;;;;;;5.43;4.20;;;30.30;40.00;;;;;;5134084;27;20219;-52
2023/08/25 07:26:09;;;;;;;5.90;4.30;;;30.40;39.80;;;;;;5133957;27;20544;-56
2023/08/25 07:28:35;;;;;;;5.70;5.20;;;30.50;40.60;;;;;;5133814;27;20412;-56
2023/08/25 07:31:01;;;;;;;8.00;4.97;;;30.60;40.30;;;;;;5133681;27;20444;-53
2023/08/25 07:33:27;;;;;;;5.40;4.90;;;30.70;40.00;;;;;;5133643;27;20411;-54
2023/08/25 07:35:54;;;;;;;4.60;4.20;;;30.70;39.40;;;;;;5133309;27;20524;-52
2023/08/25 07:38:20;;;;;;;6.33;4.40;;;30.80;39.60;;;;;;5133986;27;20403;-55
2023/08/25 07:40:45;;;;;;;5.73;3.80;;;30.80;39.10;;;;;;5133906;27;20404;-54
2023/08/25 07:43:12;;;;;;;7.63;4.27;;;30.80;39.50;;;;;;5133590;27;20537;-52
2023/08/25 07:45:38;;;;;;;5.70;4.47;;;30.80;39.00;;;;;;5133411;27;20198;-53
2023/08/25 07:48:04;;;;;;;5.83;5.07;;;30.90;39.30;;;;;;5133777;27;20739;-55
2023/08/25 07:50:31;;;;;;;12.53;5.10;;;31.00;40.00;;;;;;5132204;27;20163;-51
2023/08/25 07:52:57;;;;;;;5.57;4.30;;;31.10;39.90;;;;;;5133578;27;20418;-54
2023/08/25 07:55:23;;;;;;;7.07;3.80;;;31.10;39.30;;;;;;5133101;27;20448;-57
2023/08/25 07:57:49;;;;;;;7.13;5.30;;;31.20;39.30;;;;;;5133382;27;20416;-51
2023/08/25 08:00:16;;;;;;;6.70;4.87;;;31.20;39.00;;;;;;5133297;27;20403;-53
2023/08/25 08:02:46;;;;;;;4.80;3.87;;;31.30;38.70;;;;;;5133469;27;20401;-56
2023/08/25 08:05:12;;;;;;;7.00;4.13;;;31.40;38.50;;;;;;5133025;27;20925;-53
2023/08/25 08:07:38;;;;;;;4.30;3.97;;;31.30;37.90;;;;;;5133293;27;20476;-56
2023/08/25 08:10:05;;;;;;;8.50;4.60;;;31.40;39.10;;;;;;5132035;27;20397;-53
2023/08/25 08:12:31;;;;;;;8.20;4.83;;;31.50;39.60;;;;;;5133093;27;20490;-54
2023/08/25 08:14:57;;;;;;;6.67;4.53;;;31.50;38.80;;;;;;5132667;27;20446;-55
2023/08/25 08:17:23;;;;;;;5.83;4.60;;;31.50;38.70;;;;;;5133059;27;20416;-52
2023/08/25 08:19:48;;;;;;;5.20;3.60;;;31.60;37.60;;;;;;5133109;27;20484;-53
2023/08/25 08:22:15;;;;;;;5.67;4.30;;;31.60;38.60;;;;;;5133185;27;20261;-56
2023/08/25 08:24:47;;;;;;;4.00;3.60;;;31.70;39.40;;;;;;5132858;27;20253;-51
2023/08/25 08:27:15;;;;;;;7.43;4.70;;;31.80;40.20;;;;;;5133242;27;20493;-56
2023/08/25 08:29:41;;;;;;;8.23;4.07;;;31.90;39.50;;;;;;5132803;27;20409;-58
2023/08/25 08:32:07;;;;;;;4.87;4.17;;;32.00;39.30;;;;;;5132871;28;20408;-53
2023/08/25 08:34:33;;;;;;;5.13;4.03;;;32.10;39.10;;;;;;5132660;28;20416;-54
2023/08/25 08:36:59;;;;;;;6.63;3.63;;;32.10;39.20;;;;;;5132870;27;20862;-56
2023/08/25 08:39:25;;;;;;;4.77;4.13;;;32.20;37.90;;;;;;5132932;27;20417;-52
2023/08/25 08:41:52;;;;;;;5.17;4.40;;;32.20;38.30;;;;;;5132829;27;20261;-53
2023/08/25 08:44:19;;;;;;;6.27;4.00;;;32.30;38.00;;;;;;5132672;27;20178;-53
2023/08/25 08:46:48;;;;;;;6.07;3.67;;;32.30;38.20;;;;;;5132752;27;20933;-54
2023/08/25 08:49:14;;;;;;;4.47;4.07;;;32.40;37.50;;;;;;5132740;27;20797;-58
2023/08/25 08:51:44;;;;;;;6.27;3.83;;;32.40;37.10;;;;;;5132928;27;20396;-52
2023/08/25 08:54:10;;;;;;;6.20;3.90;;;32.40;36.70;;;;;;5132537;27;20428;-52
2023/08/25 08:56:35;;;;;;;4.03;3.60;;;32.40;37.90;;;;;;5132450;27;20642;-52
2023/08/25 08:59:04;;;;;;;5.13;4.20;;;32.50;36.90;;;;;;5132789;27;20937;-52
2023/08/25 09:01:32;;;;;;;6.07;4.00;;;32.40;36.40;;;;;;5132806;27;20170;-57
2023/08/25 09:04:01;;;;;;;5.00;4.00;;;32.50;37.30;;;;;;5132544;27;21162;-52
2023/08/25 09:06:35;;;;;;;5.73;3.97;;;32.60;37.10;;;;;;5132406;27;20424;-57
2023/08/25 09:09:04;;;;;;;4.80;3.80;;;32.60;36.50;;;;;;5132506;27;20411;-53
2023/08/25 09:11:31;;;;;;;7.00;4.00;;;32.70;36.70;;;;;;5136183;27;20439;-52
2023/08/25 09:13:58;;;;;;;5.20;4.27;;;32.80;36.60;;;;;;5136420;27;20403;-51
2023/08/25 09:16:25;;;;;;;9.00;4.00;;;32.80;35.50;;;;;;5136414;27;20472;-52
2023/08/25 09:18:52;;;;;;;4.90;3.87;;;32.80;36.10;;;;;;5136704;27;20451;-53
2023/08/25 09:21:21;;;;;;;5.60;4.50;;;32.90;36.10;;;;;;5136514;27;20403;-57
2023/08/25 09:23:54;;;;;;;9.60;3.73;;;33.00;36.40;;;;;;5136184;27;20400;-57
2023/08/25 09:26:20;;;;;;;5.10;4.60;;;33.00;36.90;;;;;;5136463;27;20511;-52
2023/08/25 09:28:46;;;;;;;4.97;3.73;;;33.10;37.20;;;;;;5136206;27;20395;-58
2023/08/25 09:31:25;;;;;;;5.00;3.60;;;33.10;35.90;;;;;;5136172;27;20404;-56
2023/08/25 09:33:57;;;;;;;5.23;3.47;;;33.20;37.10;;;;;;5136351;27;20175;-52
2023/08/25 09:36:23;;;;;;;3.90;3.50;;;33.20;35.70;;;;;;5135654;27;21316;-58
2023/08/25 09:38:49;;;;;;;5.60;4.50;;;33.30;36.20;;;;;;5136003;27;20412;-58
2023/08/25 09:41:25;;;;;;;5.30;3.80;;;33.20;35.10;;;;;;5136318;27;20202;-52
2023/08/25 09:43:59;;;;;;;7.40;3.33;;;33.40;36.20;;;;;;5135845;27;20185;-54
2023/08/25 09:46:29;;;;;;;5.80;3.10;;;33.50;37.10;;;;;;5135661;27;21001;-54
2023/08/25 09:49:07;;;;;;;4.47;3.10;;;33.60;35.70;;;;;;5135895;27;20415;-52
2023/08/25 09:51:41;;;;;;;4.17;3.70;;;33.70;35.00;;;;;;5135891;27;20400;-54
2023/08/25 09:54:17;;;;;;;7.00;3.73;;;33.80;34.80;;;;;;5135540;27;20791;-58
2023/08/25 09:56:45;;;;;;;4.50;3.33;;;33.80;34.10;;;;;;5135836;27;20463;-52
2023/08/25 09:59:13;;;;;;;3.90;3.43;;;33.90;33.90;;;;;;5135524;27;20483;-56
2023/08/25 10:01:41;;;;;;;4.20;3.80;;;33.90;34.10;;;;;;5135687;27;20944;-53
2023/08/25 10:04:07;;;;;;;6.40;3.93;;;33.90;34.00;;;;;;5135606;27;20411;-55
2023/08/25 10:06:36;;;;;;;4.37;3.63;;;34.00;35.10;;;;;;5135468;27;20427;-56
2023/08/25 10:09:03;;;;;;;4.13;3.20;;;34.10;35.50;;;;;;5135386;27;20646;-52
2023/08/25 10:11:49;;;;;;;5.83;3.40;;;34.10;34.30;;;;;;5135392;27;20924;-56
2023/08/25 10:14:17;;;;;;;6.53;2.87;;;34.10;34.70;;;;;;5134796;27;20425;-53
2023/08/25 10:16:51;;;;;;;3.80;3.03;;;34.10;36.00;;;;;;5135234;27;20450;-51
2023/08/25 10:19:27;;;;;;;12.03;4.40;;;34.10;34.50;;;;;;5135380;27;20404;-57
2023/08/25 10:21:54;;;;;;;3.53;3.20;;;34.10;35.30;;;;;;5134774;27;20399;-54
2023/08/25 10:24:25;;;;;;;4.33;3.13;;;34.10;35.00;;;;;;5135181;27;20410;-52
2023/08/25 10:26:52;;;;;;;4.50;2.70;;;34.10;33.80;;;;;;5135292;27;20511;-57
2023/08/25 10:29:23;;;;;;;4.40;3.33;;;34.10;34.60;;;;;;5135187;27;20408;-54
2023/08/25 10:31:51;;;;;;;5.57;3.47;;;34.10;34.80;;;;;;5134983;27;20903;-52
2023/08/25 10:34:44;;;;;;;4.90;2.83;;;34.10;34.00;;;;;;5134704;27;20525;-54
2023/08/25 10:37:22;;;;;;;4.27;2.50;;;34.20;33.60;;;;;;5133793;27;20511;-53
2023/08/25 10:39:53;;;;;;;4.00;3.10;;;34.20;33.50;;;;;;5135272;27;20937;-50
2023/08/25 10:42:33;;;;;;;5.33;3.10;;;34.40;34.10;;;;;;5134863;27;20395;-57
2023/08/25 10:45:09;;;;;;;6.53;2.97;;;34.70;34.50;;;;;;5134475;27;20432;-53
2023/08/25 10:47:46;;;;;;;3.73;2.50;;;34.80;32.70;;;;;;5134665;27;20407;-52
2023/08/25 10:50:12;;;;;;;3.93;3.03;;;34.80;32.10;;;;;;5134729;27;20380;-56
2023/08/25 10:52:47;;;;;;;6.10;2.97;;;34.80;31.70;;;;;;5134662;27;20426;-51
2023/08/25 10:55:28;;;;;;;3.87;2.20;;;34.70;31.40;;;;;;5134176;27;20443;-56
2023/08/25 10:58:04;;;;;;;3.60;2.57;;;34.70;31.00;;;;;;5134786;27;20394;-51
2023/08/25 11:00:43;;;;;;;4.73;2.40;;;34.70;31.20;;;;;;5134805;27;20441;-56
2023/08/25 11:03:09;;;;;;;5.57;2.77;;;34.70;32.40;;;;;;5134478;27;20818;-54
2023/08/25 11:05:36;;;;;;;3.17;2.40;;;34.80;32.90;;;;;;5133968;27;20487;-53
2023/08/25 11:08:05;;;;;;;3.73;2.70;;;34.80;31.70;;;;;;5134109;27;20420;-52
2023/08/25 11:10:34;;;;;;;4.77;2.80;;;34.70;30.80;;;;;;5134484;27;20411;-56
2023/08/25 11:13:01;;;;;;;4.73;3.00;;;34.80;32.10;;;;;;5134107;27;20894;-53
2023/08/25 11:15:27;;;;;;;6.17;2.70;;;34.80;31.10;;;;;;5133887;27;20455;-52
2023/08/25 11:17:53;;;;;;;8.80;2.00;;;34.70;29.60;;;;;;5134171;27;20411;-56
2023/08/25 11:20:19;;;;;;;5.90;2.87;;;34.50;29.90;;;;;;5134131;27;20486;-53
2023/08/25 11:22:52;;;;;;;3.73;2.63;;;34.40;29.90;;;;;;5133967;27;20704;-56
2023/08/25 11:25:18;;;;;;;5.83;2.63;;;34.40;28.60;;;;;;5133989;27;20411;-53
2023/08/25 11:27:51;;;;;;;4.87;3.10;;;34.30;30.60;;;;;;5133997;27;20400;-52
2023/08/25 11:30:18;;;;;;;4.23;2.90;;;34.30;30.60;;;;;;5133939;27;20394;-57
2023/08/25 11:32:50;;;;;;;8.53;3.60;;;34.20;30.60;;;;;;5133015;27;20415;-57
2023/08/25 11:35:16;;;;;;;6.63;3.20;;;34.10;31.00;;;;;;5133545;27;20458;-52
2023/08/25 11:37:46;;;;;;;7.83;2.90;;;34.00;30.70;;;;;;5133866;27;20462;-53
2023/08/25 11:40:19;;;;;;;5.50;3.40;;;33.90;32.10;;;;;;5133664;27;20396;-51
2023/08/25 11:42:46;;;;;;;12.20;2.93;;;33.90;31.60;;;;;;5133943;27;20420;-55
2023/08/25 11:45:12;;;;;;;10.20;3.10;;;33.80;32.50;;;;;;5133357;27;20925;-54
2023/08/25 11:47:38;;;;;;;4.17;3.10;;;33.70;32.10;;;;;;5133715;27;20775;-52
2023/08/25 11:50:05;;;;;;;10.03;3.40;;;33.60;32.00;;;;;;5133595;27;20952;-54
2023/08/25 11:52:34;;;;;;;8.60;3.37;;;33.60;32.00;;;;;;5133457;27;20444;-53
2023/08/25 11:55:00;;;;;;;3.87;3.20;;;33.40;32.80;;;;;;5133243;27;20769;-53
2023/08/25 11:57:36;;;;;;;4.77;3.70;;;33.30;32.10;;;;;;5133353;27;20429;-57
2023/08/25 12:00:07;;;;;;;4.33;3.43;;;33.30;32.00;;;;;;5133325;27;20388;-53
2023/08/25 12:02:34;;;;;;;8.00;3.43;;;33.20;32.80;;;;;;5133593;27;20472;-57
2023/08/25 12:05:04;;;;;;;5.23;3.23;;;33.20;33.70;;;;;;5133061;27;20919;-52
2023/08/25 12:07:31;;;;;;;5.23;3.60;;;33.20;34.30;;;;;;5133253;27;20424;-52
2023/08/25 12:09:59;;;;;;;3.53;3.23;;;33.20;35.30;;;;;;5133343;27;20416;-55
2023/08/25 12:12:28;;;;;;;6.50;3.07;;;33.10;34.50;;;;;;5133094;27;20936;-52
2023/08/25 12:14:54;;;;;;;9.60;3.20;;;33.10;34.90;;;;;;5133038;27;20402;-53
2023/08/25 12:17:25;;;;;;;8.80;3.90;;;33.00;34.10;;;;;;5133079;27;20427;-55
2023/08/25 12:19:51;;;;;;;5.80;3.23;;;32.90;34.00;;;;;;5133258;27;20174;-53
2023/08/25 12:22:16;;;;;;;4.30;3.30;;;32.90;35.40;;;;;;5133084;27;20889;-53
2023/08/25 12:24:46;;;;;;;4.90;3.37;;;32.80;36.50;;;;;;5132741;27;20403;-58
2023/08/25 12:27:12;;;;;;;6.47;4.00;;;32.80;37.60;;;;;;5132788;27;20533;-53
2023/08/25 12:29:38;;;;;;;4.43;4.03;;;32.70;38.40;;;;;;5133047;27;20936;-52
2023/08/25 12:32:04;;;;;;;5.60;4.70;;;32.60;38.90;;;;;;5132926;27;20420;-56
2023/08/25 12:34:30;;;;;;;7.57;3.97;;;32.50;38.90;;;;;;5132589;27;20182;-52
2023/08/25 12:36:57;;;;;;;5.63;3.90;;;32.40;39.40;;;;;;5132800;27;20459;-52
2023/08/25 12:39:23;;;;;;;6.23;3.73;;;32.30;38.90;;;;;;5132897;27;20403;-56
2023/08/25 12:41:49;;;;;;;6.70;4.00;;;32.30;39.40;;;;;;5133076;27;20403;-56
2023/08/25 12:44:14;;;;;;;6.33;4.87;;;32.20;38.80;;;;;;5134231;27;20427;-52
2023/08/25 12:46:42;;;;;;;5.80;4.13;;;32.20;39.30;;;;;;5137120;27;20254;-54